CheckWX is a tool to help pilots better visualize weather data.  It is not intended as a substitute for an official pre-flight weather briefing.

16:29:22 UTC

KMHT TAF
Manchester Airport
Manchester, New Hampshire, USA
KMHT 211120Z 2112/2212 33007KT P6SM SCT040 FM220300 00000KT P6SM BKN080

Nov-21@
12:00 UTC

Nov-21 @ 12:00 UTC

Nov-22@
03:00 UTC

Nov-22 @ 03:00 UTC

KMHT 211120Z 2112/2212 33007KT P6SM SCT040
Wind
  • 330° at 7 KTS
Cloud Levels
  • Scattered at 4,000' AGL

Nov-22@
03:00 UTC

Nov-22 @ 03:00 UTC

Nov-22@
12:00 UTC

Nov-22 @ 12:00 UTC

FM220300 00000KT P6SM BKN080

From

From Standard forecast or significant change

Cloud Levels
  • Broken at 8,000' AGL